Time;durP1;ratioP1;P1;durP2;ratioP2;P2;SDS_P1;SDS_P2;PMS_P1;PMS_P2;Temp;Humidity;BMP_temperature;BMP_pressure;BME280_temperature;BME280_humidity;BME280_pressure;Samples;Min_cycle;Max_cycle;Signal;HPM_P1;HPM_P2
2022/02/24 00:00:10;;;;;;;6.78;0.65;;;;;;;4.27;46.91;101306.19;4992813;28;20270;-77
2022/02/24 00:02:39;;;;;;;3.53;0.90;;;;;;;4.16;47.08;101310.56;4978121;28;20046;-78
2022/02/24 00:05:06;;;;;;;9.25;2.30;;;;;;;4.13;47.91;101315.78;4957141;28;20033;-79
2022/02/24 00:07:31;;;;;;;8.32;1.35;;;;;;;4.51;46.94;101306.88;4973630;28;20045;-80
2022/02/24 00:09:57;;;;;;;5.93;0.80;;;;;;;4.04;48.05;101315.84;4959802;28;20148;-80
2022/02/24 00:12:22;;;;;;;8.60;1.30;;;;;;;4.84;46.43;101309.19;4981947;28;20049;-79
2022/02/24 00:14:49;;;;;;;6.75;1.10;;;;;;;4.50;46.75;101284.44;4974617;28;20105;-78
2022/02/24 00:17:14;;;;;;;9.63;1.05;;;;;;;3.91;48.45;101305.53;4986188;28;20120;-79
2022/02/24 00:19:40;;;;;;;1.98;0.63;;;;;;;4.26;48.19;101301.88;4979135;28;20520;-81
2022/02/24 00:22:06;;;;;;;4.45;1.42;;;;;;;4.17;48.24;101300.22;4970267;28;20025;-79
2022/02/24 00:24:31;;;;;;;4.57;1.48;;;;;;;4.53;47.01;101281.84;4972295;28;20049;-79
2022/02/24 00:26:57;;;;;;;10.45;0.95;;;;;;;4.63;47.21;101288.66;4958424;28;20422;-80
2022/02/24 00:29:23;;;;;;;2.80;0.80;;;;;;;4.05;47.99;101297.72;4986352;28;20035;-78
2022/02/24 00:31:49;;;;;;;7.85;0.85;;;;;;;4.20;48.04;101276.03;4975616;28;20034;-80
2022/02/24 00:34:15;;;;;;;3.65;0.98;;;;;;;4.26;47.59;101280.34;4968850;28;20043;-82
2022/02/24 00:36:44;;;;;;;11.15;1.15;;;;;;;4.16;47.76;101270.06;4983574;28;20121;-80
2022/02/24 00:39:10;;;;;;;9.98;1.17;;;;;;;4.04;48.63;101264.09;4984542;28;20047;-79
2022/02/24 00:41:37;;;;;;;8.10;1.15;;;;;;;4.05;48.28;101250.28;4974212;28;20030;-79
2022/02/24 00:44:03;;;;;;;10.73;1.35;;;;;;;4.40;47.43;101248.28;4992744;28;20121;-80
2022/02/24 00:46:28;;;;;;;9.05;1.15;;;;;;;4.30;47.49;101251.84;4989674;28;20029;-80
2022/02/24 00:48:54;;;;;;;5.03;1.00;;;;;;;4.59;46.76;101245.56;4975624;28;20049;-79
2022/02/24 00:51:19;;;;;;;3.00;0.88;;;;;;;4.40;47.54;101243.09;4974398;28;20562;-78
2022/02/24 00:53:45;;;;;;;10.32;1.20;;;;;;;4.47;47.09;101238.75;4979499;28;20042;-79
2022/02/24 00:56:11;;;;;;;9.68;0.88;;;;;;;4.21;48.04;101246.72;4995626;28;20529;-79
2022/02/24 00:58:38;;;;;;;7.47;1.33;;;;;;;4.41;47.45;101239.66;4996982;28;20137;-78
2022/02/24 01:01:03;;;;;;;11.52;1.30;;;;;;;4.53;47.33;101243.03;4971540;28;20414;-81
2022/02/24 01:03:29;;;;;;;10.43;1.25;;;;;;;4.21;47.91;101242.41;4995003;28;20038;-80
2022/02/24 01:05:55;;;;;;;8.48;1.42;;;;;;;4.27;47.31;101246.66;4975285;28;20309;-79
2022/02/24 01:08:21;;;;;;;5.55;0.98;;;;;;;4.59;46.76;101237.78;4974315;28;20327;-81
2022/02/24 01:10:47;;;;;;;5.75;0.70;;;;;;;4.58;46.91;101241.22;4976449;28;20603;-81
2022/02/24 01:13:12;;;;;;;4.97;1.63;;;;;;;4.08;48.31;101237.34;4974370;28;20401;-79
2022/02/24 01:15:38;;;;;;;12.75;1.95;;;;;;;3.87;48.56;101221.06;4972356;28;20026;-81
2022/02/24 01:18:05;;;;;;;5.00;0.50;;;;;;;4.02;48.08;101223.56;4956847;28;20398;-81
2022/02/24 01:20:31;;;;;;;5.35;1.17;;;;;;;4.14;48.29;101217.47;4974138;28;20033;-79
2022/02/24 01:22:57;;;;;;;6.38;0.68;;;;;;;4.41;47.72;101211.19;4989539;28;20057;-81
2022/02/24 01:25:23;;;;;;;2.97;1.33;;;;;;;4.01;48.36;101221.84;4973874;28;20262;-78
2022/02/24 01:27:48;;;;;;;10.55;1.15;;;;;;;4.01;48.28;101221.84;4995365;28;20104;-79
2022/02/24 01:30:14;;;;;;;3.85;0.90;;;;;;;4.00;48.07;101196.84;4989256;28;20477;-80
2022/02/24 01:32:40;;;;;;;9.38;1.05;;;;;;;4.34;47.75;101196.59;4961505;28;20045;-80
2022/02/24 01:35:06;;;;;;;11.93;1.13;;;;;;;4.38;47.43;101203.44;4975382;28;20084;-80
2022/02/24 01:37:31;;;;;;;3.92;1.25;;;;;;;4.51;46.96;101188.66;4977536;28;20542;-78
2022/02/24 01:39:57;;;;;;;6.72;0.70;;;;;;;4.22;47.86;101191.50;4976271;28;20582;-79
2022/02/24 01:42:23;;;;;;;6.18;1.27;;;;;;;3.93;48.09;101195.19;4976860;28;20677;-78
2022/02/24 01:44:48;;;;;;;5.85;1.20;;;;;;;3.75;48.62;101196.16;4978138;28;20057;-79
2022/02/24 01:47:14;;;;;;;11.63;1.80;;;;;;;4.05;48.34;101198.53;4982161;28;20388;-80
2022/02/24 01:49:40;;;;;;;12.48;2.13;;;;;;;4.34;47.49;101190.53;4989150;28;20125;-79
2022/02/24 01:52:09;;;;;;;7.03;0.90;;;;;;;4.31;47.62;101195.75;4976173;28;20030;-77
2022/02/24 01:54:35;;;;;;;4.32;0.65;;;;;;;4.25;47.46;101200.97;4996407;28;20025;-78
2022/02/24 01:57:01;;;;;;;2.60;0.47;;;;;;;4.64;46.14;101179.06;4977646;28;20095;-80
2022/02/24 01:59:27;;;;;;;6.47;1.38;;;;;;;4.78;46.22;101182.34;4976703;28;20075;-79
2022/02/24 02:01:53;;;;;;;6.45;0.88;;;;;;;4.69;46.15;101177.25;4977628;28;20025;-80
2022/02/24 02:04:18;;;;;;;8.63;0.82;;;;;;;4.80;45.85;101175.41;4978698;28;20032;-81
2022/02/24 02:06:44;;;;;;;3.80;0.80;;;;;;;4.67;46.34;101168.66;4977103;28;20137;-79
2022/02/24 02:09:10;;;;;;;5.40;0.88;;;;;;;4.59;46.55;101157.53;4983659;28;20423;-79
2022/02/24 02:11:36;;;;;;;7.25;1.73;;;;;;;4.51;46.39;101157.59;4984524;28;20056;-78
2022/02/24 02:14:03;;;;;;;7.90;1.05;;;;;;;4.45;46.89;101156.81;4978100;28;20046;-78
2022/02/24 02:16:29;;;;;;;11.90;1.27;;;;;;;4.18;47.74;101148.41;4976322;28;20092;-80
2022/02/24 02:18:54;;;;;;;12.57;1.98;;;;;;;4.28;46.95;101144.91;4998842;28;20042;-81
2022/02/24 02:21:20;;;;;;;8.05;1.40;;;;;;;3.89;47.60;101140.91;4975532;28;20616;-82
2022/02/24 02:23:46;;;;;;;4.78;0.52;;;;;;;4.30;46.76;101137.97;4974928;28;20104;-81
2022/02/24 02:26:11;;;;;;;10.40;1.17;;;;;;;4.00;47.54;101127.00;4978079;28;20034;-78
2022/02/24 02:28:37;;;;;;;13.85;0.80;;;;;;;4.35;46.52;101128.44;4980338;28;20038;-79
2022/02/24 02:31:02;;;;;;;8.88;0.82;;;;;;;4.35;46.61;101135.34;4984360;28;20034;-79
2022/02/24 02:33:28;;;;;;;9.38;0.80;;;;;;;4.71;45.83;101128.91;4974986;28;20077;-80
2022/02/24 02:35:54;;;;;;;9.45;1.48;;;;;;;4.47;46.32;101129.19;4990748;28;20123;-81
2022/02/24 02:38:19;;;;;;;4.00;0.63;;;;;;;4.15;46.58;101115.69;4974493;28;20053;-79
2022/02/24 02:40:45;;;;;;;5.75;0.77;;;;;;;4.17;46.91;101118.25;4993221;28;20111;-76
2022/02/24 02:43:11;;;;;;;7.65;1.00;;;;;;;4.38;46.33;101119.78;4991153;28;20136;-78
2022/02/24 02:45:38;;;;;;;6.57;1.05;;;;;;;4.21;46.81;101114.78;4994601;28;20045;-80
2022/02/24 02:48:06;;;;;;;10.90;0.65;;;;;;;4.28;46.30;101106.06;4975128;28;20039;-79
2022/02/24 02:50:32;;;;;;;7.72;0.82;;;;;;;4.53;46.20;101100.66;4978061;28;20059;-80
2022/02/24 02:53:02;;;;;;;5.53;0.47;;;;;;;4.64;46.02;101096.19;4959725;28;20060;-76
2022/02/24 02:55:28;;;;;;;10.63;0.70;;;;;;;4.47;46.24;101109.31;5001302;28;20124;-80
2022/02/24 02:57:53;;;;;;;4.97;0.80;;;;;;;3.92;47.55;101100.38;4977188;28;20337;-76
2022/02/24 03:00:19;;;;;;;7.82;0.75;;;;;;;4.68;45.65;101103.06;4977068;28;20538;-80
2022/02/24 03:02:44;;;;;;;11.02;0.90;;;;;;;4.22;46.70;101099.22;4991370;28;20034;-80
2022/02/24 03:05:10;;;;;;;10.38;1.15;;;;;;;4.06;46.93;101089.06;4979624;28;20037;-80
2022/02/24 03:07:36;;;;;;;8.80;0.82;;;;;;;3.80;47.39;101079.78;4977894;28;20046;-79
2022/02/24 03:10:04;;;;;;;4.18;0.43;;;;;;;3.79;46.73;101071.19;4980729;28;20501;-78
2022/02/24 03:12:35;;;;;;;6.50;0.50;;;;;;;3.98;46.84;101071.00;4980167;28;20053;-79
2022/02/24 03:15:10;;;;;;;9.35;0.80;;;;;;;4.52;45.28;101065.25;4977073;28;20369;-78
2022/02/24 03:17:40;;;;;;;4.70;0.50;;;;;;;4.55;45.64;101057.47;4986599;28;20491;-78
2022/02/24 03:20:06;;;;;;;5.15;1.20;;;;;;;4.70;45.07;101057.28;4996778;28;20042;-78
2022/02/24 03:22:31;;;;;;;7.82;1.42;;;;;;;4.42;45.37;101054.16;4979727;28;20034;-79
2022/02/24 03:24:57;;;;;;;9.15;0.82;;;;;;;4.48;45.46;101055.84;4963662;28;20037;-79
2022/02/24 03:27:22;;;;;;;10.57;0.40;;;;;;;3.98;46.21;101053.78;4989798;28;20042;-78
2022/02/24 03:29:48;;;;;;;3.83;0.30;;;;;;;4.24;45.67;101054.38;4977080;28;20560;-79
2022/02/24 03:32:13;;;;;;;6.05;0.57;;;;;;;4.02;45.66;101045.09;4977664;28;20107;-79
2022/02/24 03:34:40;;;;;;;4.63;0.40;;;;;;;4.42;45.19;101049.00;4977700;28;20033;-78
2022/02/24 03:37:07;;;;;;;3.33;0.80;;;;;;;4.23;45.52;101043.19;4978932;28;20029;-79
2022/02/24 03:39:33;;;;;;;7.18;0.55;;;;;;;3.89;46.18;101043.50;4976232;28;20026;-80
2022/02/24 03:41:59;;;;;;;9.90;1.17;;;;;;;3.86;46.10;101043.53;4960622;28;20550;-79
2022/02/24 03:44:24;;;;;;;6.72;2.22;;;;;;;4.10;45.89;101044.19;4977613;28;20061;-79
2022/02/24 03:46:50;;;;;;;8.70;0.63;;;;;;;3.87;46.11;101029.72;4974780;28;20034;-79
2022/02/24 03:49:15;;;;;;;7.32;0.63;;;;;;;4.02;45.80;101024.41;4973545;28;20038;-81
2022/02/24 03:51:41;;;;;;;3.63;0.32;;;;;;;3.81;46.34;101019.47;4989125;28;20034;-80
2022/02/24 03:54:07;;;;;;;5.60;0.85;;;;;;;3.63;46.55;101029.94;4975358;28;20203;-79
2022/02/24 03:56:33;;;;;;;6.32;0.57;;;;;;;3.98;46.25;101022.75;4992876;28;20033;-79
2022/02/24 03:58:59;;;;;;;6.40;0.73;;;;;;;3.83;45.95;101011.66;5009995;28;20055;-79
2022/02/24 04:01:24;;;;;;;6.20;0.60;;;;;;;3.80;46.52;101023.75;4994121;28;20037;-78
2022/02/24 04:03:50;;;;;;;4.07;1.17;;;;;;;4.37;45.33;101015.41;4977713;28;20038;-78
2022/02/24 04:06:15;;;;;;;8.48;1.20;;;;;;;3.95;46.25;101022.75;4985211;28;20026;-80
2022/02/24 04:08:41;;;;;;;5.18;0.60;;;;;;;4.35;44.98;101014.56;4988666;28;20033;-79
2022/02/24 04:11:06;;;;;;;6.85;0.50;;;;;;;4.13;45.91;101013.94;4985682;28;20034;-80
2022/02/24 04:13:32;;;;;;;4.78;0.45;;;;;;;3.59;47.09;101006.72;4975751;28;20097;-81
2022/02/24 04:15:58;;;;;;;3.58;0.55;;;;;;;3.51;47.38;101003.34;4964777;28;20029;-81
2022/02/24 04:18:24;;;;;;;4.85;0.75;;;;;;;3.80;46.37;100991.88;4971613;28;20082;-78
2022/02/24 04:20:49;;;;;;;7.72;0.65;;;;;;;4.05;46.16;100982.16;4972952;28;20030;-77
2022/02/24 04:23:15;;;;;;;9.40;1.33;;;;;;;4.22;45.62;100981.94;4978495;28;20046;-79
2022/02/24 04:25:41;;;;;;;6.82;0.60;;;;;;;3.77;46.50;100992.75;4971761;28;20073;-79
2022/02/24 04:28:06;;;;;;;9.18;0.82;;;;;;;4.39;45.03;100977.44;4975130;28;20038;-80
2022/02/24 04:30:32;;;;;;;4.53;0.88;;;;;;;4.04;46.11;100975.25;4985034;28;20456;-81
2022/02/24 04:32:58;;;;;;;4.03;1.33;;;;;;;4.01;46.05;100970.97;4977755;28;20519;-80
2022/02/24 04:35:23;;;;;;;7.35;1.58;;;;;;;3.93;46.39;100966.75;4980740;28;20030;-78
2022/02/24 04:37:49;;;;;;;6.68;0.45;;;;;;;4.12;45.95;100976.03;4983226;28;20504;-79
2022/02/24 04:40:15;;;;;;;4.07;0.52;;;;;;;3.75;46.95;100972.97;4981305;28;20030;-79
2022/02/24 04:42:43;;;;;;;12.30;1.73;;;;;;;4.08;46.20;100970.91;4976471;28;20204;-80
2022/02/24 04:45:09;;;;;;;4.63;0.50;;;;;;;3.87;46.86;100965.06;4983808;28;20033;-77
2022/02/24 04:47:35;;;;;;;4.45;0.68;;;;;;;4.02;45.95;100972.66;4992168;28;20038;-78
2022/02/24 04:50:02;;;;;;;9.45;0.50;;;;;;;3.88;46.56;100974.56;4977413;28;20370;-79
2022/02/24 04:52:28;;;;;;;4.40;0.32;;;;;;;4.08;46.10;100976.09;4991737;28;20133;-78
2022/02/24 04:54:53;;;;;;;6.07;1.10;;;;;;;3.45;47.26;100976.69;4980370;28;20200;-79
2022/02/24 04:57:19;;;;;;;5.80;0.93;;;;;;;3.45;47.87;100964.66;4974213;28;20034;-79
2022/02/24 04:59:45;;;;;;;11.90;0.60;;;;;;;4.07;46.24;100975.19;4978441;28;20420;-79
2022/02/24 05:02:10;;;;;;;3.38;0.52;;;;;;;4.00;46.54;100964.06;4978839;28;20036;-80
2022/02/24 05:04:36;;;;;;;5.72;0.85;;;;;;;4.21;45.67;100956.97;4980517;28;20026;-80
2022/02/24 05:07:02;;;;;;;5.85;0.30;;;;;;;4.00;45.98;100958.06;4998236;28;20560;-78
2022/02/24 05:09:27;;;;;;;3.38;0.40;;;;;;;3.76;46.61;100948.81;4983509;28;20025;-79
2022/02/24 05:11:53;;;;;;;2.15;0.40;;;;;;;4.05;45.92;100942.47;4982425;28;20041;-78
2022/02/24 05:14:19;;;;;;;8.00;1.48;;;;;;;3.99;45.87;100940.84;4995061;28;20086;-79
2022/02/24 05:16:45;;;;;;;5.20;0.88;;;;;;;3.64;46.69;100943.78;4981299;28;20045;-79
2022/02/24 05:19:10;;;;;;;11.10;0.57;;;;;;;3.87;46.36;100931.47;4980559;28;20042;-80
2022/02/24 05:21:36;;;;;;;4.50;0.98;;;;;;;3.31;47.04;100927.72;4985349;28;20040;-80
2022/02/24 05:24:02;;;;;;;3.80;0.40;;;;;;;3.74;46.75;100919.56;4980423;28;20042;-77
2022/02/24 05:26:27;;;;;;;6.20;0.93;;;;;;;3.43;47.26;100919.88;4983726;28;20030;-78
2022/02/24 05:28:53;;;;;;;7.00;0.68;;;;;;;3.69;46.85;100916.16;4977076;28;20049;-79
2022/02/24 05:31:18;;;;;;;9.82;1.00;;;;;;;3.23;47.88;100929.50;4981860;28;20277;-79
2022/02/24 05:33:44;;;;;;;7.47;0.93;;;;;;;3.34;47.38;100919.97;4987726;28;20423;-80
2022/02/24 05:36:09;;;;;;;7.45;0.60;;;;;;;3.10;47.66;100916.69;4981199;28;20037;-77
2022/02/24 05:38:35;;;;;;;10.88;1.15;;;;;;;3.94;46.16;100917.63;4966559;28;20038;-81
2022/02/24 05:41:02;;;;;;;6.07;0.60;;;;;;;3.67;46.86;100915.31;4976874;28;20045;-78
2022/02/24 05:43:30;;;;;;;10.38;1.15;;;;;;;3.63;46.89;100921.38;4977732;28;20042;-79
2022/02/24 05:45:58;;;;;;;6.60;0.57;;;;;;;3.59;46.73;100915.41;4984979;28;20371;-80
2022/02/24 05:48:24;;;;;;;7.28;0.90;;;;;;;2.90;48.86;100903.06;4978450;28;20568;-80
2022/02/24 05:50:50;;;;;;;9.63;0.90;;;;;;;2.98;48.55;100906.47;4996401;28;20042;-79
2022/02/24 05:53:16;;;;;;;4.10;1.30;;;;;;;3.30;47.67;100905.34;4977402;28;20037;-77
2022/02/24 05:55:42;;;;;;;9.50;0.75;;;;;;;2.89;48.23;100906.50;4980043;28;20405;-79
2022/02/24 05:58:08;;;;;;;2.85;0.50;;;;;;;3.35;47.80;100906.16;4985057;28;20038;-79
2022/02/24 06:00:33;;;;;;;13.93;1.45;;;;;;;3.10;48.19;100901.19;4980066;28;20128;-78
2022/02/24 06:02:59;;;;;;;7.80;0.75;;;;;;;3.10;48.06;100903.75;4982524;28;20141;-79
2022/02/24 06:05:25;;;;;;;4.32;0.95;;;;;;;3.44;47.48;100895.72;4979622;28;20065;-81
2022/02/24 06:07:50;;;;;;;5.40;0.57;;;;;;;3.47;47.35;100900.00;5000735;28;20099;-78
2022/02/24 06:10:16;;;;;;;7.32;0.63;;;;;;;3.48;47.33;100889.66;4986058;28;20116;-80
2022/02/24 06:12:42;;;;;;;6.88;0.80;;;;;;;3.46;47.54;100891.41;4988019;28;20042;-80
2022/02/24 06:15:09;;;;;;;3.28;0.52;;;;;;;3.77;46.98;100894.53;4976496;28;20030;-79
2022/02/24 06:17:35;;;;;;;6.03;0.70;;;;;;;3.37;48.26;100891.50;4998949;28;20061;-78
2022/02/24 06:20:01;;;;;;;5.78;0.95;;;;;;;3.21;48.11;100889.91;4978985;28;20034;-79
2022/02/24 06:22:27;;;;;;;9.13;1.33;;;;;;;4.17;46.24;100880.25;4976344;28;20038;-78
2022/02/24 06:24:52;;;;;;;4.75;1.27;;;;;;;3.84;46.88;100879.78;4986249;28;20292;-78
2022/02/24 06:27:19;;;;;;;4.78;0.60;;;;;;;3.48;48.08;100881.91;4979663;28;20061;-77
2022/02/24 06:29:45;;;;;;;8.32;0.63;;;;;;;3.69;47.68;100877.38;4997388;28;20037;-78
2022/02/24 06:32:16;;;;;;;4.95;0.63;;;;;;;3.86;47.66;100872.88;4980244;28;20034;-78
2022/02/24 06:34:42;;;;;;;6.00;0.60;;;;;;;4.04;46.95;100876.13;4982902;28;20026;-79
2022/02/24 06:37:09;;;;;;;6.43;0.85;;;;;;;3.99;47.11;100878.75;4982870;28;20045;-78
2022/02/24 06:39:35;;;;;;;12.98;1.23;;;;;;;4.31;46.51;100880.06;4962609;28;20542;-79
2022/02/24 06:42:00;;;;;;;8.18;1.40;;;;;;;3.98;47.34;100872.75;4980994;28;20024;-78
2022/02/24 06:44:27;;;;;;;6.85;1.55;;;;;;;3.74;48.33;100867.88;4981498;28;20034;-79
2022/02/24 06:46:53;;;;;;;10.65;1.13;;;;;;;4.04;47.63;100860.59;4979590;28;20030;-79
2022/02/24 06:49:19;;;;;;;8.70;1.15;;;;;;;4.06;47.75;100864.88;4993362;28;20057;-79
2022/02/24 06:51:45;;;;;;;6.25;0.73;;;;;;;3.92;47.90;100854.72;4981115;28;20034;-79
2022/02/24 06:54:10;;;;;;;8.32;1.02;;;;;;;4.40;47.10;100857.50;4979792;28;20038;-78
2022/02/24 06:56:36;;;;;;;8.63;1.50;;;;;;;4.06;47.65;100853.69;4974901;28;20029;-79
2022/02/24 06:59:03;;;;;;;11.55;1.52;;;;;;;3.90;48.31;100838.34;4983604;28;20038;-79
2022/02/24 07:01:30;;;;;;;6.38;0.98;;;;;;;4.18;47.72;100833.66;4983950;28;20049;-79
2022/02/24 07:03:55;;;;;;;6.72;1.27;;;;;;;4.14;47.62;100836.31;4965847;28;20045;-77
2022/02/24 07:06:21;;;;;;;7.38;1.27;;;;;;;3.60;48.75;100839.56;4985023;28;20056;-78
2022/02/24 07:08:47;;;;;;;5.20;1.25;;;;;;;4.50;46.77;100831.47;4957891;28;20246;-81
2022/02/24 07:11:12;;;;;;;7.85;1.42;;;;;;;4.37;47.52;100831.66;4989795;28;20038;-80
2022/02/24 07:13:38;;;;;;;4.57;0.90;;;;;;;4.28;47.75;100834.41;4989006;28;20062;-79
2022/02/24 07:16:03;;;;;;;4.30;0.75;;;;;;;4.05;47.98;100831.25;4985265;28;20030;-80
2022/02/24 07:18:29;;;;;;;7.75;1.42;;;;;;;3.56;49.35;100820.69;4983725;28;20046;-79
2022/02/24 07:20:55;;;;;;;8.10;2.08;;;;;;;3.65;49.09;100811.97;4983957;28;20076;-79
2022/02/24 07:23:24;;;;;;;10.73;1.23;;;;;;;4.43;47.57;100817.75;4981174;28;20408;-79
2022/02/24 07:25:53;;;;;;;11.45;1.35;;;;;;;4.17;48.28;100815.59;4978387;28;20483;-77
2022/02/24 07:28:20;;;;;;;5.55;1.30;;;;;;;4.41;47.25;100804.88;4977395;28;20034;-77
2022/02/24 07:30:45;;;;;;;10.15;2.03;;;;;;;4.16;47.89;100808.69;4976104;28;20041;-79
2022/02/24 07:33:11;;;;;;;5.03;0.63;;;;;;;3.73;49.11;100806.69;4972919;28;20045;-80
2022/02/24 07:35:36;;;;;;;5.18;1.20;;;;;;;3.38;49.30;100802.78;5002235;28;20036;-79
2022/02/24 07:38:02;;;;;;;5.78;1.25;;;;;;;4.10;48.62;100798.44;4999754;28;20030;-79
2022/02/24 07:40:27;;;;;;;11.65;1.00;;;;;;;3.71;48.84;100792.91;4974484;28;20037;-79
2022/02/24 07:42:53;;;;;;;3.47;1.02;;;;;;;4.14;48.22;100795.78;4980612;28;20139;-79
2022/02/24 07:45:19;;;;;;;9.07;1.55;;;;;;;4.19;48.22;100793.13;4988732;28;20120;-77
2022/02/24 07:47:46;;;;;;;4.47;0.93;;;;;;;4.24;47.76;100793.06;4974521;28;20165;-79
2022/02/24 07:50:13;;;;;;;5.97;1.20;;;;;;;4.81;46.85;100793.00;4983326;28;20046;-79
2022/02/24 07:52:44;;;;;;;3.35;1.33;;;;;;;4.41;47.70;100784.16;4979002;28;20437;-79
2022/02/24 07:55:11;;;;;;;6.85;1.77;;;;;;;4.69;47.19;100785.44;4981647;28;20034;-80
2022/02/24 07:57:41;;;;;;;9.43;1.50;;;;;;;4.62;46.86;100771.75;4982318;28;20041;-80
2022/02/24 08:00:09;;;;;;;6.53;1.52;;;;;;;4.25;48.17;100774.06;4980318;28;20041;-79
2022/02/24 08:02:34;;;;;;;8.18;0.95;;;;;;;4.51;47.03;100773.66;4980436;28;20045;-80
2022/02/24 08:05:00;;;;;;;8.20;2.00;;;;;;;5.16;45.63;100774.25;4981004;28;20128;-77
2022/02/24 08:07:26;;;;;;;10.20;1.85;;;;;;;4.53;47.25;100775.34;4974491;28;20042;-79
2022/02/24 08:09:51;;;;;;;7.65;0.98;;;;;;;4.87;46.65;100768.72;5002957;28;20140;-77
2022/02/24 08:15:02;;;;;;;7.20;1.15;;;;;;;4.55;47.67;100762.38;4987440;28;20097;-79
2022/02/24 08:17:28;;;;;;;9.60;0.85;;;;;;;4.43;47.87;100771.19;4982267;28;20042;-78
2022/02/24 08:19:53;;;;;;;9.27;0.88;;;;;;;4.90;46.75;100753.16;5005276;28;20072;-79
2022/02/24 08:22:19;;;;;;;6.53;1.33;;;;;;;4.40;47.90;100760.88;4979826;28;20046;-78
2022/02/24 08:24:45;;;;;;;10.57;1.08;;;;;;;4.75;47.64;100757.72;4985584;28;20178;-79
2022/02/24 08:27:10;;;;;;;5.68;1.38;;;;;;;5.20;46.63;100741.38;4981973;28;20091;-77
2022/02/24 08:29:36;;;;;;;6.85;1.65;;;;;;;5.23;46.36;100749.97;5001992;28;20539;-77
2022/02/24 08:32:02;;;;;;;3.30;1.08;;;;;;;4.69;47.81;100737.09;4981532;28;20041;-79
2022/02/24 08:34:27;;;;;;;15.68;2.55;;;;;;;4.85;47.18;100737.69;4976646;28;20585;-78
2022/02/24 08:36:53;;;;;;;7.45;1.92;;;;;;;5.06;47.33;100728.69;4989137;28;20046;-78
2022/02/24 08:39:25;;;;;;;9.05;1.00;;;;;;;4.12;48.59;100726.81;4976386;28;20133;-79
2022/02/24 08:41:51;;;;;;;5.25;0.57;;;;;;;4.31;48.96;100730.00;4983307;28;20056;-78
2022/02/24 08:44:18;;;;;;;6.40;0.90;;;;;;;4.88;48.91;100705.72;4986590;28;20039;-77
2022/02/24 08:46:44;;;;;;;9.77;1.50;;;;;;;4.19;50.93;100710.34;4993606;28;20612;-79
2022/02/24 08:49:12;;;;;;;8.25;1.40;;;;;;;4.57;50.33;100711.44;4973608;28;20415;-78
2022/02/24 08:51:38;;;;;;;11.07;1.48;;;;;;;4.25;50.24;100699.88;4966526;28;20060;-77
2022/02/24 08:54:04;;;;;;;8.70;1.60;;;;;;;4.57;49.32;100693.31;5007226;28;20045;-79
2022/02/24 08:56:29;;;;;;;7.32;1.52;;;;;;;4.86;49.34;100695.38;4983822;28;20045;-79
2022/02/24 08:58:55;;;;;;;11.05;1.27;;;;;;;4.83;48.92;100698.88;4979960;28;20600;-79
2022/02/24 09:01:21;;;;;;;9.40;2.33;;;;;;;4.29;49.69;100675.66;4983981;28;20070;-76
2022/02/24 09:03:46;;;;;;;2.88;0.80;;;;;;;5.14;48.13;100693.09;5001136;28;20595;-79
2022/02/24 09:06:11;;;;;;;7.80;2.13;;;;;;;5.44;47.30;100670.06;4984001;28;20076;-78
2022/02/24 09:08:38;;;;;;;7.03;2.63;;;;;;;5.24;47.90;100663.53;4981458;28;20053;-79
2022/02/24 09:11:03;;;;;;;8.48;1.45;;;;;;;4.55;48.83;100654.50;4984809;28;20026;-78
2022/02/24 09:13:29;;;;;;;4.18;0.98;;;;;;;5.13;48.38;100654.31;4976084;28;20096;-80
2022/02/24 09:15:54;;;;;;;6.55;1.27;;;;;;;5.44;47.26;100650.16;4982954;28;20449;-79
2022/02/24 09:18:20;;;;;;;6.30;1.25;;;;;;;5.33;48.17;100640.91;4983674;28;20043;-77
2022/02/24 09:20:46;;;;;;;3.80;1.38;;;;;;;5.48;46.87;100640.59;4973168;28;20080;-78
2022/02/24 09:23:11;;;;;;;7.97;1.33;;;;;;;5.72;46.12;100638.31;4986155;28;20038;-79
2022/02/24 09:25:38;;;;;;;9.25;1.27;;;;;;;6.54;44.53;100625.00;5005762;28;20038;-80
2022/02/24 09:28:04;;;;;;;5.93;1.42;;;;;;;6.52;44.96;100626.78;4982442;28;20053;-80
2022/02/24 09:30:29;;;;;;;3.83;1.58;;;;;;;5.90;46.25;100637.84;4984493;28;20038;-79
2022/02/24 09:32:56;;;;;;;9.65;1.55;;;;;;;5.97;45.69;100628.19;4980486;28;20046;-77
2022/02/24 09:35:22;;;;;;;13.23;2.25;;;;;;;5.83;45.90;100636.31;4978695;28;20480;-78
2022/02/24 09:37:48;;;;;;;4.50;1.20;;;;;;;5.88;45.66;100618.88;4979870;28;20112;-82
2022/02/24 09:40:14;;;;;;;5.80;1.52;;;;;;;6.06;45.48;100607.19;4984625;28;20045;-81
2022/02/24 09:42:41;;;;;;;10.43;1.45;;;;;;;5.82;46.23;100608.69;4981618;28;20052;-80
2022/02/24 09:45:08;;;;;;;4.15;1.02;;;;;;;5.68;46.90;100601.19;4981694;28;20472;-80
2022/02/24 09:47:37;;;;;;;11.63;2.10;;;;;;;5.80;45.84;100600.06;4982095;28;20506;-80
2022/02/24 09:50:04;;;;;;;6.57;1.65;;;;;;;6.67;44.16;100589.19;4983833;28;20058;-79
2022/02/24 09:52:30;;;;;;;7.22;1.40;;;;;;;6.08;45.56;100580.34;4983810;28;20061;-80
2022/02/24 09:54:56;;;;;;;8.00;1.20;;;;;;;6.47;44.82;100566.34;4982692;28;20039;-80
2022/02/24 09:57:21;;;;;;;6.85;1.88;;;;;;;6.80;44.34;100568.91;4984020;28;20037;-78
2022/02/24 09:59:47;;;;;;;9.70;1.60;;;;;;;7.18;43.50;100553.91;4986706;28;20045;-79
2022/02/24 10:02:13;;;;;;;9.70;2.03;;;;;;;6.70;44.33;100557.91;4966990;28;20108;-79
2022/02/24 10:05:07;;;;;;;8.55;1.55;;;;;;;5.61;46.65;100542.63;4984972;28;20030;-75
2022/02/24 10:07:36;;;;;;;6.90;1.13;;;;;;;6.25;45.57;100540.94;4967406;28;20415;-79
2022/02/24 10:10:24;;;;;;;8.95;1.83;;;;;;;6.64;45.18;100534.69;4984542;28;20048;-80
2022/02/24 10:13:04;;;;;;;7.28;1.50;;;;;;;5.44;46.76;100501.56;4984471;28;20042;-80
2022/02/24 10:15:31;;;;;;;6.03;0.98;;;;;;;6.69;44.86;100514.66;4969222;28;20080;-79
2022/02/24 10:18:16;;;;;;;7.22;1.48;;;;;;;7.11;44.08;100516.88;4971763;28;20084;-79
2022/02/24 10:20:46;;;;;;;7.10;1.48;;;;;;;7.09;44.46;100506.50;4989450;28;20026;-79
2022/02/24 10:23:14;;;;;;;6.35;1.50;;;;;;;7.18;44.17;100500.16;4941156;28;20049;-79
2022/02/24 10:25:50;;;;;;;6.45;1.67;;;;;;;7.24;43.89;100493.91;4987208;28;20044;-80
2022/02/24 10:28:51;;;;;;;6.97;1.15;;;;;;;7.44;43.76;100488.06;5000517;28;20041;-80
2022/02/24 10:31:27;;;;;;;7.53;1.15;;;;;;;6.57;44.43;100468.28;4993691;28;20035;-80
2022/02/24 10:34:17;;;;;;;5.18;1.63;;;;;;;7.92;42.57;100467.38;5012603;28;20245;-80
2022/02/24 10:36:43;;;;;;;9.90;1.30;;;;;;;6.78;43.60;100459.84;5012524;28;20046;-77
2022/02/24 10:39:12;;;;;;;9.38;1.95;;;;;;;6.93;43.71;100444.66;4984732;28;20041;-79
2022/02/24 10:41:43;;;;;;;9.57;2.17;;;;;;;5.66;46.21;100435.31;4985770;28;20034;-76
2022/02/24 10:44:19;;;;;;;7.15;1.40;;;;;;;7.01;44.38;100422.72;4981665;28;20042;-77
2022/02/24 10:47:10;;;;;;;7.55;1.20;;;;;;;7.40;43.75;100411.06;4989926;28;20038;-79
2022/02/24 10:49:39;;;;;;;9.05;1.23;;;;;;;7.58;43.11;100402.69;4983115;28;20178;-77
2022/02/24 10:52:23;;;;;;;4.85;1.17;;;;;;;8.15;42.30;100401.44;4975491;28;20037;-80
2022/02/24 10:54:58;;;;;;;12.43;1.58;;;;;;;7.39;43.21;100401.56;4983102;28;20034;-78
2022/02/24 10:57:26;;;;;;;10.32;1.25;;;;;;;7.95;42.92;100401.34;5004213;28;20118;-77
2022/02/24 10:59:57;;;;;;;5.60;1.08;;;;;;;7.07;44.20;100390.53;4983509;28;20168;-78
2022/02/24 11:02:24;;;;;;;3.17;1.23;;;;;;;7.22;44.33;100395.22;4980928;28;20087;-78
2022/02/24 11:04:54;;;;;;;4.47;1.40;;;;;;;7.15;44.21;100395.44;4978883;28;20065;-78
2022/02/24 11:07:20;;;;;;;4.63;1.05;;;;;;;6.37;45.99;100375.41;4980490;28;20158;-79
2022/02/24 11:09:50;;;;;;;10.70;3.15;;;;;;;6.42;45.86;100387.38;4981551;28;20029;-77
2022/02/24 11:12:17;;;;;;;6.68;1.80;;;;;;;6.12;46.22;100377.84;5003395;28;20358;-79
2022/02/24 11:14:46;;;;;;;3.15;1.20;;;;;;;6.69;45.07;100374.41;4990262;28;20069;-79
2022/02/24 11:17:14;;;;;;;5.65;1.38;;;;;;;6.21;46.51;100362.00;4982868;28;20034;-78
2022/02/24 11:19:43;;;;;;;6.03;1.35;;;;;;;7.47;44.12;100352.78;4981186;28;20384;-79
2022/02/24 11:22:10;;;;;;;9.75;2.03;;;;;;;5.91;46.43;100348.22;4988343;28;20041;-80
2022/02/24 11:24:37;;;;;;;11.38;1.25;;;;;;;6.79;45.73;100336.84;4967008;28;20511;-80
2022/02/24 11:27:29;;;;;;;7.07;1.75;;;;;;;6.01;47.03;100332.31;4982130;28;20033;-80
2022/02/24 11:30:08;;;;;;;11.48;1.38;;;;;;;6.80;44.73;100322.97;4983369;28;20042;-80
2022/02/24 11:32:34;;;;;;;6.10;1.55;;;;;;;6.75;45.38;100313.63;4998655;28;20057;-79